createdAt,value
2022-09-24T12:08:05.000Z,59.545898
2022-09-24T12:08:25.000Z,59.515381
2022-09-24T12:08:45.000Z,59.515381
2022-09-24T12:09:12.000Z,59.918213
2022-09-24T12:09:32.000Z,60.321045
2022-09-24T12:09:53.000Z,59.313965
2022-09-24T12:10:13.000Z,57.879639
2022-09-24T12:10:33.000Z,57.373047
2022-09-24T12:10:42.000Z,57.275391
2022-09-24T12:11:38.000Z,57.678223
2022-09-24T12:11:58.000Z,57.879639
2022-09-24T12:12:19.000Z,58.178711
2022-09-24T12:12:39.000Z,58.654785
2022-09-24T12:12:59.000Z,58.251953
2022-09-24T12:13:19.000Z,58.050537
2022-09-24T12:13:40.000Z,58.148193
2022-09-24T12:13:49.000Z,58.349609
2022-09-24T12:14:33.000Z,58.624268
2022-09-24T12:14:53.000Z,58.624268
2022-09-24T12:15:14.000Z,58.929443
2022-09-24T12:15:34.000Z,59.130859
2022-09-24T12:15:54.000Z,59.027100
2022-09-24T12:16:14.000Z,58.325195
2022-09-24T12:16:35.000Z,58.020020
2022-09-24T12:16:55.000Z,58.197021
2022-09-24T12:17:15.000Z,58.398438
2022-09-24T12:17:36.000Z,58.398438
2022-09-24T12:17:56.000Z,58.398438
2022-09-24T12:18:16.000Z,58.398438
2022-09-24T12:18:36.000Z,58.093262
2022-09-24T12:18:57.000Z,58.093262
2022-09-24T12:19:17.000Z,57.495117
2022-09-24T12:19:37.000Z,57.293701
2022-09-24T12:19:45.000Z,57.293701
2022-09-24T12:20:30.000Z,57.293701
2022-09-24T12:20:50.000Z,57.495117
2022-09-24T12:21:10.000Z,56.988525
2022-09-24T12:21:20.000Z,56.762695
2022-09-24T12:22:29.000Z,56.658936
2022-09-24T12:22:49.000Z,56.658936
2022-09-24T12:23:09.000Z,56.762695
2022-09-24T12:23:29.000Z,56.463623
2022-09-24T12:23:50.000Z,56.262207
2022-09-24T12:24:10.000Z,56.158447
2022-09-24T12:24:30.000Z,55.957031
2022-09-24T12:24:51.000Z,56.158447
2022-09-24T12:25:11.000Z,56.262207
2022-09-24T12:25:31.000Z,55.957031
2022-09-24T12:25:51.000Z,55.657959
2022-09-24T12:26:12.000Z,55.657959
2022-09-24T12:26:32.000Z,55.859375
2022-09-24T12:26:52.000Z,56.158447
2022-09-24T12:27:13.000Z,55.859375
2022-09-24T12:27:33.000Z,55.456543
2022-09-24T12:27:53.000Z,55.255127
2022-09-24T12:28:13.000Z,55.352783
2022-09-24T12:28:34.000Z,54.852295
2022-09-24T12:28:54.000Z,53.448486
2022-09-24T12:29:14.000Z,53.546143
2022-09-24T12:29:34.000Z,53.649902
2022-09-24T12:29:55.000Z,53.649902
2022-09-24T12:30:15.000Z,54.150391
2022-09-24T12:30:35.000Z,54.150391
2022-09-24T12:30:56.000Z,54.248047
2022-09-24T12:31:16.000Z,54.150391
2022-09-24T12:31:36.000Z,53.747559
2022-09-24T12:31:56.000Z,54.046631
2022-09-24T12:32:17.000Z,54.248047
2022-09-24T12:32:37.000Z,54.046631
2022-09-24T12:32:57.000Z,53.948975
2022-09-24T12:33:17.000Z,54.150391
2022-09-24T12:33:38.000Z,54.650879
2022-09-24T12:33:58.000Z,54.754639
2022-09-24T12:34:18.000Z,54.553223
2022-09-24T12:34:39.000Z,54.248047
2022-09-24T12:34:59.000Z,54.248047
2022-09-24T12:35:19.000Z,53.948975
2022-09-24T12:35:39.000Z,53.948975
2022-09-24T12:36:00.000Z,53.649902
2022-09-24T12:36:20.000Z,53.247070
2022-09-24T12:36:40.000Z,53.448486
2022-09-24T12:37:01.000Z,53.546143
2022-09-24T12:37:21.000Z,53.649902
2022-09-24T12:37:41.000Z,53.546143
2022-09-24T12:38:01.000Z,53.344727
2022-09-24T12:38:22.000Z,53.448486
2022-09-24T12:38:42.000Z,53.649902
2022-09-24T12:39:02.000Z,53.649902
2022-09-24T12:39:23.000Z,53.747559
2022-09-24T12:39:43.000Z,53.948975
2022-09-24T12:40:03.000Z,54.046631
2022-09-24T12:40:23.000Z,54.248047
2022-09-24T12:40:44.000Z,54.248047
2022-09-24T12:41:04.000Z,54.553223
2022-09-24T12:41:24.000Z,54.553223
2022-09-24T12:41:45.000Z,54.449463
2022-09-24T12:42:05.000Z,54.248047
2022-09-24T12:42:25.000Z,54.351807
2022-09-24T12:42:45.000Z,53.948975
2022-09-24T12:43:06.000Z,53.143311
2022-09-24T12:43:26.000Z,53.247070
2022-09-24T12:43:46.000Z,53.546143
2022-09-24T12:44:07.000Z,53.649902
2022-09-24T12:44:27.000Z,53.851318
2022-09-24T12:44:47.000Z,53.851318
2022-09-24T12:45:07.000Z,53.948975
2022-09-24T12:45:28.000Z,53.649902
2022-09-24T12:45:48.000Z,53.747559
2022-09-24T12:46:08.000Z,53.546143
2022-09-24T12:46:29.000Z,53.344727
2022-09-24T12:46:49.000Z,52.545166
2022-09-24T12:47:09.000Z,53.143311
2022-09-24T12:47:30.000Z,54.150391
2022-09-24T12:47:50.000Z,54.351807
2022-09-24T12:48:10.000Z,54.022217
2022-09-24T12:48:30.000Z,53.723145
2022-09-24T12:48:51.000Z,53.619385
2022-09-24T12:49:11.000Z,53.320312
2022-09-24T12:49:31.000Z,53.521729
2022-09-24T12:50:09.000Z,53.820801
2022-09-24T12:50:29.000Z,53.924561
2022-09-24T12:50:49.000Z,53.320312
2022-09-24T12:51:09.000Z,53.222656
2022-09-24T12:51:30.000Z,53.222656
2022-09-24T12:51:50.000Z,53.118896
2022-09-24T12:52:10.000Z,53.320312
2022-09-24T12:52:31.000Z,53.198242
2022-09-24T12:52:51.000Z,53.094482
2022-09-24T12:53:11.000Z,52.893066
2022-09-24T12:53:31.000Z,53.094482
2022-09-24T12:53:52.000Z,52.996826
2022-09-24T12:54:12.000Z,52.893066
2022-09-24T12:54:32.000Z,52.996826
2022-09-24T12:54:53.000Z,52.893066
2022-09-24T12:55:13.000Z,52.893066
2022-09-24T12:55:33.000Z,52.996826
2022-09-24T12:55:53.000Z,52.996826
2022-09-24T12:56:14.000Z,52.795410
2022-09-24T12:56:34.000Z,52.795410
2022-09-24T12:56:54.000Z,52.691650
2022-09-24T12:57:15.000Z,53.094482
2022-09-24T12:57:35.000Z,53.094482
2022-09-24T12:57:55.000Z,52.996826
2022-09-24T12:58:15.000Z,52.795410
2022-09-24T12:58:36.000Z,52.392578
2022-09-24T12:58:56.000Z,52.191162
2022-09-24T12:59:16.000Z,51.989746
2022-09-24T12:59:37.000Z,51.989746
2022-09-24T12:59:57.000Z,51.989746
2022-09-24T13:00:17.000Z,51.989746
2022-09-24T13:00:38.000Z,51.812744
2022-09-24T13:00:58.000Z,51.916504
2022-09-24T13:01:18.000Z,52.014160
2022-09-24T13:01:38.000Z,51.916504
2022-09-24T13:01:59.000Z,52.117920
2022-09-24T13:02:19.000Z,52.117920
2022-09-24T13:02:39.000Z,52.215576
2022-09-24T13:03:00.000Z,52.319336
2022-09-24T13:03:02.000Z,51.916504
2022-09-24T13:04:02.000Z,51.916504
2022-09-24T13:04:22.000Z,51.916504
2022-09-24T13:04:43.000Z,52.014160
2022-09-24T13:05:03.000Z,52.014160
2022-09-24T13:05:23.000Z,52.117920
2022-09-24T13:05:43.000Z,52.319336
2022-09-24T13:06:04.000Z,52.514648
2022-09-24T13:06:24.000Z,52.514648
2022-09-24T13:06:44.000Z,52.416992
2022-09-24T13:07:05.000Z,52.490234
2022-09-24T13:07:13.000Z,52.593994
2022-09-24T13:07:59.000Z,52.691650
2022-09-24T13:08:19.000Z,52.691650
2022-09-24T13:08:39.000Z,52.392578
2022-09-24T13:09:00.000Z,52.294922
2022-09-24T13:09:09.000Z,52.490234
2022-09-24T13:09:52.000Z,52.490234
2022-09-24T13:10:12.000Z,52.593994
2022-09-24T13:10:32.000Z,52.770996
2022-09-24T13:10:41.000Z,53.167725
2022-09-24T13:11:38.000Z,53.070068
2022-09-24T13:11:58.000Z,52.770996
2022-09-24T13:12:19.000Z,52.770996
2022-09-24T13:12:39.000Z,52.868652
2022-09-24T13:12:59.000Z,52.972412
2022-09-24T13:13:08.000Z,52.441406
2022-09-24T13:14:04.000Z,52.441406
2022-09-24T13:14:24.000Z,52.441406
2022-09-24T13:14:44.000Z,52.441406
2022-09-24T13:15:05.000Z,52.441406
2022-09-24T13:15:25.000Z,52.343750
2022-09-24T13:15:45.000Z,52.239990
2022-09-24T13:16:06.000Z,52.044678
2022-09-24T13:16:26.000Z,52.142334
2022-09-24T13:16:46.000Z,52.142334
2022-09-24T13:17:06.000Z,52.215576
2022-09-24T13:17:27.000Z,52.215576
2022-09-24T13:17:47.000Z,52.117920
2022-09-24T13:18:07.000Z,52.014160
2022-09-24T13:18:28.000Z,51.513672
2022-09-24T13:18:48.000Z,51.513672
2022-09-24T13:19:08.000Z,51.513672
2022-09-24T13:19:28.000Z,51.416016
2022-09-24T13:19:49.000Z,51.513672
2022-09-24T13:20:09.000Z,51.513672
2022-09-24T13:20:29.000Z,51.617432
2022-09-24T13:20:50.000Z,51.617432
2022-09-24T13:21:10.000Z,51.513672
2022-09-24T13:21:30.000Z,51.416016
2022-09-24T13:21:50.000Z,51.214600
2022-09-24T13:22:11.000Z,51.214600
2022-09-24T13:22:31.000Z,51.013184
2022-09-24T13:22:51.000Z,50.891113
2022-09-24T13:23:12.000Z,51.190186
2022-09-24T13:23:32.000Z,51.293945
2022-09-24T13:23:52.000Z,51.190186
2022-09-24T13:24:13.000Z,51.013184
2022-09-24T13:24:33.000Z,51.092529
2022-09-24T13:24:53.000Z,51.116943
2022-09-24T13:25:14.000Z,51.318359
2022-09-24T13:25:34.000Z,51.190186
2022-09-24T13:25:54.000Z,51.013184
2022-09-24T13:26:14.000Z,51.116943
2022-09-24T13:26:35.000Z,51.416016
2022-09-24T13:26:55.000Z,51.513672
2022-09-24T13:27:15.000Z,51.416016
2022-09-24T13:27:36.000Z,51.513672
2022-09-24T13:27:56.000Z,51.617432
2022-09-24T13:28:16.000Z,51.715088
2022-09-24T13:28:36.000Z,51.513672
2022-09-24T13:28:57.000Z,51.318359
2022-09-24T13:29:17.000Z,51.214600
2022-09-24T13:29:38.000Z,51.416016
2022-09-24T13:29:58.000Z,51.513672
2022-09-24T13:30:18.000Z,51.715088
2022-09-24T13:30:38.000Z,51.818848
2022-09-24T13:30:59.000Z,51.818848
2022-09-24T13:31:19.000Z,51.715088
2022-09-24T13:31:39.000Z,51.715088
2022-09-24T13:32:00.000Z,51.818848
2022-09-24T13:32:20.000Z,51.818848
2022-09-24T13:32:40.000Z,51.715088
2022-09-24T13:33:01.000Z,51.818848
2022-09-24T13:33:21.000Z,51.818848
2022-09-24T13:33:41.000Z,51.818848
2022-09-24T13:34:01.000Z,51.715088
2022-09-24T13:34:22.000Z,51.617432
2022-09-24T13:34:42.000Z,51.715088
2022-09-24T13:35:02.000Z,51.940918
2022-09-24T13:35:23.000Z,52.239990
2022-09-24T13:35:43.000Z,52.343750
2022-09-24T13:36:03.000Z,52.441406
2022-09-24T13:36:24.000Z,52.343750
2022-09-24T13:36:44.000Z,52.441406
2022-09-24T13:37:04.000Z,52.746582
2022-09-24T13:37:25.000Z,52.941895
2022-09-24T13:37:45.000Z,52.844238
2022-09-24T13:38:05.000Z,52.844238
2022-09-24T13:38:25.000Z,53.045654
2022-09-24T13:38:46.000Z,53.344727
2022-09-24T13:39:06.000Z,53.448486
2022-09-24T13:39:26.000Z,53.546143
2022-09-24T13:39:47.000Z,53.674316
2022-09-24T13:40:07.000Z,53.869629
2022-09-24T13:40:27.000Z,53.869629
2022-09-24T13:40:47.000Z,53.674316
2022-09-24T13:41:08.000Z,53.674316
2022-09-24T13:41:28.000Z,53.771973
2022-09-24T13:41:48.000Z,53.973389
2022-09-24T13:42:09.000Z,54.046631
2022-09-24T13:42:29.000Z,54.150391
2022-09-24T13:42:29.000Z,53.546143
2022-09-24T13:43:38.000Z,53.546143
2022-09-24T13:43:58.000Z,53.546143
2022-09-24T13:44:18.000Z,53.546143
2022-09-24T13:44:39.000Z,53.448486
2022-09-24T13:44:59.000Z,53.247070
2022-09-24T13:45:19.000Z,53.143311
2022-09-24T13:45:40.000Z,53.222656
2022-09-24T13:46:00.000Z,53.320312
2022-09-24T13:46:20.000Z,53.417969
2022-09-24T13:46:41.000Z,53.417969
2022-09-24T13:47:01.000Z,53.320312
2022-09-24T13:47:21.000Z,53.320312
2022-09-24T13:47:29.000Z,53.417969
2022-09-24T13:48:08.000Z,53.521729
2022-09-24T13:48:28.000Z,53.594971
2022-09-24T13:48:49.000Z,53.497314
2022-09-24T13:48:58.000Z,52.691650
2022-09-24T13:50:50.000Z,52.667236
2022-09-24T13:51:10.000Z,52.667236
2022-09-24T13:51:30.000Z,52.667236
2022-09-24T13:51:40.000Z,51.965332
2022-09-24T13:53:44.000Z,52.044678
2022-09-24T13:54:05.000Z,52.044678
2022-09-24T13:54:25.000Z,51.940918
2022-09-24T13:54:45.000Z,51.843262
2022-09-24T13:55:05.000Z,51.739502
2022-09-24T13:55:26.000Z,51.739502
2022-09-24T13:55:46.000Z,51.739502
2022-09-24T13:56:06.000Z,51.739502
2022-09-24T13:56:27.000Z,51.739502
2022-09-24T13:56:47.000Z,51.739502
2022-09-24T13:56:55.000Z,51.440430
2022-09-24T13:57:55.000Z,51.318359
2022-09-24T13:58:16.000Z,51.416016
2022-09-24T13:58:36.000Z,51.318359
2022-09-24T13:58:56.000Z,51.519775
2022-09-24T13:59:17.000Z,51.617432
2022-09-24T13:59:37.000Z,51.617432
2022-09-24T13:59:57.000Z,51.519775
2022-09-24T14:00:17.000Z,51.519775
2022-09-24T14:00:38.000Z,51.416016
2022-09-24T14:00:58.000Z,51.416016
2022-09-24T14:01:18.000Z,51.092529
2022-09-24T14:01:39.000Z,50.793457
2022-09-24T14:01:59.000Z,50.793457
2022-09-24T14:02:19.000Z,50.494385
2022-09-24T14:02:39.000Z,50.195312
2022-09-24T14:03:00.000Z,50.292969
2022-09-24T14:03:20.000Z,50.390625
2022-09-24T14:03:40.000Z,50.292969
2022-09-24T14:04:01.000Z,50.793457
2022-09-24T14:04:21.000Z,51.196289
2022-09-24T14:04:41.000Z,51.092529
2022-09-24T14:05:01.000Z,50.695801
2022-09-24T14:05:22.000Z,50.616455
2022-09-24T14:05:42.000Z,50.518799
2022-09-24T14:06:02.000Z,50.720215
2022-09-24T14:06:23.000Z,51.318359
2022-09-24T14:06:43.000Z,51.245117
2022-09-24T14:07:03.000Z,50.939941
2022-09-24T14:07:24.000Z,51.245117
2022-09-24T14:07:44.000Z,51.043701
2022-09-24T14:08:04.000Z,51.440430
2022-09-24T14:08:25.000Z,50.964355
2022-09-24T14:08:45.000Z,50.866699
2022-09-24T14:09:05.000Z,51.464844
2022-09-24T14:09:25.000Z,51.770020
2022-09-24T14:09:46.000Z,51.989746
2022-09-24T14:10:06.000Z,52.093506
2022-09-24T14:10:26.000Z,51.989746
2022-09-24T14:10:47.000Z,51.892090
2022-09-24T14:11:07.000Z,51.794434
2022-09-24T14:11:27.000Z,51.715088
2022-09-24T14:11:47.000Z,51.818848
2022-09-24T14:12:08.000Z,52.117920
2022-09-24T14:12:28.000Z,52.319336
2022-09-24T14:12:48.000Z,52.520752
2022-09-24T14:13:08.000Z,52.117920
2022-09-24T14:13:29.000Z,51.818848
2022-09-24T14:13:49.000Z,51.818848
2022-09-24T14:14:09.000Z,52.142334
2022-09-24T14:14:30.000Z,52.142334
2022-09-24T14:14:50.000Z,52.441406
2022-09-24T14:15:10.000Z,52.545166
2022-09-24T14:15:31.000Z,52.142334
2022-09-24T14:15:51.000Z,51.843262
2022-09-24T14:16:11.000Z,51.739502
2022-09-24T14:16:32.000Z,51.843262
2022-09-24T14:16:52.000Z,52.142334
2022-09-24T14:17:12.000Z,52.441406
2022-09-24T14:17:32.000Z,52.770996
2022-09-24T14:17:53.000Z,52.868652
2022-09-24T14:18:13.000Z,52.667236
2022-09-24T14:18:33.000Z,52.569580
2022-09-24T14:18:54.000Z,52.569580
2022-09-24T14:19:14.000Z,52.465820
2022-09-24T14:19:34.000Z,52.569580
2022-09-24T14:19:55.000Z,52.972412
2022-09-24T14:20:15.000Z,52.972412
2022-09-24T14:20:35.000Z,52.868652
2022-09-24T14:20:55.000Z,52.770996
2022-09-24T14:21:16.000Z,52.770996
2022-09-24T14:21:36.000Z,53.070068
2022-09-24T14:21:56.000Z,52.972412
2022-09-24T14:22:17.000Z,53.070068
2022-09-24T14:22:37.000Z,53.167725
2022-09-24T14:22:57.000Z,53.070068
2022-09-24T14:23:18.000Z,52.972412
2022-09-24T14:23:38.000Z,52.972412
2022-09-24T14:23:58.000Z,52.868652
2022-09-24T14:24:18.000Z,52.972412
2022-09-24T14:24:39.000Z,53.070068
2022-09-24T14:24:59.000Z,53.271484
2022-09-24T14:25:19.000Z,53.497314
2022-09-24T14:25:40.000Z,53.594971
2022-09-24T14:26:00.000Z,54.101562
2022-09-24T14:26:20.000Z,54.602051
2022-09-24T14:26:41.000Z,55.401611
2022-09-24T14:27:01.000Z,55.102539
2022-09-24T14:27:21.000Z,54.901123
2022-09-24T14:27:42.000Z,54.498291
2022-09-24T14:28:02.000Z,54.296875
2022-09-24T14:28:22.000Z,54.498291
2022-09-24T14:28:42.000Z,54.901123
2022-09-24T14:29:03.000Z,54.528809
2022-09-24T14:29:23.000Z,54.827881
2022-09-24T14:29:43.000Z,54.827881
2022-09-24T14:30:04.000Z,54.528809
2022-09-24T14:30:24.000Z,54.827881
2022-09-24T14:30:44.000Z,54.827881
2022-09-24T14:31:05.000Z,54.724121
2022-09-24T14:31:25.000Z,54.827881
2022-09-24T14:31:45.000Z,55.053711
2022-09-24T14:32:06.000Z,54.852295
2022-09-24T14:32:26.000Z,55.352783
2022-09-24T14:32:46.000Z,55.657959
2022-09-24T14:33:06.000Z,56.359863
2022-09-24T14:33:27.000Z,56.262207
2022-09-24T14:33:47.000Z,55.859375
2022-09-24T14:34:07.000Z,55.755615
2022-09-24T14:34:28.000Z,55.755615
2022-09-24T14:34:48.000Z,55.554199
2022-09-24T14:35:08.000Z,55.657959
2022-09-24T14:35:28.000Z,55.859375
2022-09-24T14:35:49.000Z,55.883789
2022-09-24T14:36:09.000Z,55.859375
2022-09-24T14:36:29.000Z,55.786133
2022-09-24T14:36:50.000Z,55.786133
2022-09-24T14:37:10.000Z,55.883789
2022-09-24T14:37:30.000Z,55.987549
2022-09-24T14:37:51.000Z,56.384277
2022-09-24T14:38:11.000Z,56.890869
2022-09-24T14:38:31.000Z,57.995605
